sensor_id;sensor_type;location;lat;lon;timestamp;pressure;altitude;pressure_sealevel;temperature;humidity
56992;BME280;42885;49.754;18.636;2022-08-19T00:00:56;97693.25;;;25.72;100.00
56992;BME280;42885;49.754;18.636;2022-08-19T00:03:27;97691.91;;;25.72;100.00
56992;BME280;42885;49.754;18.636;2022-08-19T00:05:58;97686.02;;;25.66;100.00
56992;BME280;42885;49.754;18.636;2022-08-19T00:08:28;97692.96;;;25.47;100.00
56992;BME280;42885;49.754;18.636;2022-08-19T00:10:59;97692.11;;;25.57;100.00
56992;BME280;42885;49.754;18.636;2022-08-19T00:13:30;97690.51;;;25.45;100.00
56992;BME280;42885;49.754;18.636;2022-08-19T00:16:01;97687.18;;;25.36;100.00
56992;BME280;42885;49.754;18.636;2022-08-19T00:18:33;97685.00;;;25.80;100.00
56992;BME280;42885;49.754;18.636;2022-08-19T00:21:04;97678.20;;;26.11;100.00
56992;BME280;42885;49.754;18.636;2022-08-19T00:23:37;97665.91;;;26.33;100.00
56992;BME280;42885;49.754;18.636;2022-08-19T00:26:09;97668.03;;;26.54;95.76
56992;BME280;42885;49.754;18.636;2022-08-19T00:28:40;97668.27;;;26.69;92.43
56992;BME280;42885;49.754;18.636;2022-08-19T00:31:11;97666.33;;;26.66;91.37
56992;BME280;42885;49.754;18.636;2022-08-19T00:33:42;97666.92;;;26.69;90.47
56992;BME280;42885;49.754;18.636;2022-08-19T00:36:13;97658.23;;;26.44;94.32
56992;BME280;42885;49.754;18.636;2022-08-19T00:38:45;97656.83;;;26.14;99.73
56992;BME280;42885;49.754;18.636;2022-08-19T00:41:18;97652.75;;;25.91;100.00
56992;BME280;42885;49.754;18.636;2022-08-19T00:44:02;97648.20;;;25.72;100.00
56992;BME280;42885;49.754;18.636;2022-08-19T00:46:34;97649.41;;;25.49;100.00
56992;BME280;42885;49.754;18.636;2022-08-19T00:49:17;97646.93;;;25.40;100.00
56992;BME280;42885;49.754;18.636;2022-08-19T00:51:52;97649.69;;;25.29;100.00
56992;BME280;42885;49.754;18.636;2022-08-19T00:54:24;97648.23;;;25.20;100.00
56992;BME280;42885;49.754;18.636;2022-08-19T00:56:55;97652.25;;;25.34;100.00
56992;BME280;42885;49.754;18.636;2022-08-19T00:59:26;97647.01;;;25.36;100.00
56992;BME280;42885;49.754;18.636;2022-08-19T01:01:58;97645.55;;;25.20;100.00
56992;BME280;42885;49.754;18.636;2022-08-19T01:04:29;97647.50;;;25.22;100.00
56992;BME280;42885;49.754;18.636;2022-08-19T01:07:00;97642.34;;;25.27;100.00
56992;BME280;42885;49.754;18.636;2022-08-19T01:09:32;97643.86;;;25.06;100.00
56992;BME280;42885;49.754;18.636;2022-08-19T01:12:03;97629.87;;;25.17;100.00
56992;BME280;42885;49.754;18.636;2022-08-19T01:14:35;97634.84;;;25.20;100.00
56992;BME280;42885;49.754;18.636;2022-08-19T01:17:09;97630.91;;;25.16;100.00
56992;BME280;42885;49.754;18.636;2022-08-19T01:19:41;97628.18;;;24.96;100.00
56992;BME280;42885;49.754;18.636;2022-08-19T01:23:05;97634.25;;;24.52;100.00
56992;BME280;42885;49.754;18.636;2022-08-19T01:24:52;97632.58;;;24.68;100.00
56992;BME280;42885;49.754;18.636;2022-08-19T01:27:22;97623.76;;;24.74;100.00
56992;BME280;42885;49.754;18.636;2022-08-19T01:29:53;97629.90;;;24.68;100.00
56992;BME280;42885;49.754;18.636;2022-08-19T01:32:24;97630.36;;;24.54;100.00
56992;BME280;42885;49.754;18.636;2022-08-19T01:34:55;97626.78;;;24.58;100.00
56992;BME280;42885;49.754;18.636;2022-08-19T01:37:25;97624.75;;;24.42;100.00
56992;BME280;42885;49.754;18.636;2022-08-19T01:39:56;97624.25;;;24.43;100.00
56992;BME280;42885;49.754;18.636;2022-08-19T01:42:27;97623.24;;;24.51;100.00
56992;BME280;42885;49.754;18.636;2022-08-19T01:44:59;97625.81;;;24.30;100.00
56992;BME280;42885;49.754;18.636;2022-08-19T01:47:30;97622.70;;;24.62;100.00
56992;BME280;42885;49.754;18.636;2022-08-19T01:50:01;97629.14;;;24.57;100.00
56992;BME280;42885;49.754;18.636;2022-08-19T01:52:31;97631.98;;;24.73;100.00
56992;BME280;42885;49.754;18.636;2022-08-19T01:55:03;97633.89;;;24.79;100.00
56992;BME280;42885;49.754;18.636;2022-08-19T01:57:34;97630.05;;;24.95;100.00
56992;BME280;42885;49.754;18.636;2022-08-19T02:00:08;97624.59;;;25.64;100.00
56992;BME280;42885;49.754;18.636;2022-08-19T02:02:45;97626.55;;;25.60;98.59
56992;BME280;42885;49.754;18.636;2022-08-19T02:05:16;97623.44;;;26.10;87.51
56992;BME280;42885;49.754;18.636;2022-08-19T02:07:48;97622.42;;;26.54;81.10
56992;BME280;42885;49.754;18.636;2022-08-19T02:10:21;97626.91;;;26.67;78.66
56992;BME280;42885;49.754;18.636;2022-08-19T02:12:52;97624.19;;;26.74;76.43
56992;BME280;42885;49.754;18.636;2022-08-19T02:15:23;97623.93;;;26.59;78.68
56992;BME280;42885;49.754;18.636;2022-08-19T02:17:55;97622.58;;;26.66;75.82
56992;BME280;42885;49.754;18.636;2022-08-19T02:20:25;97621.86;;;26.84;74.91
56992;BME280;42885;49.754;18.636;2022-08-19T02:22:56;97618.37;;;26.84;73.13
56992;BME280;42885;49.754;18.636;2022-08-19T02:25:27;97609.80;;;26.91;72.20
56992;BME280;42885;49.754;18.636;2022-08-19T02:27:59;97604.73;;;26.92;71.22
56992;BME280;42885;49.754;18.636;2022-08-19T02:30:29;97602.34;;;26.93;71.20
56992;BME280;42885;49.754;18.636;2022-08-19T02:33:00;97613.20;;;26.82;71.45
56992;BME280;42885;49.754;18.636;2022-08-19T02:35:31;97609.07;;;26.86;70.91
56992;BME280;42885;49.754;18.636;2022-08-19T02:38:02;97616.19;;;26.83;70.28
56992;BME280;42885;49.754;18.636;2022-08-19T02:40:53;97608.53;;;26.87;70.00
56992;BME280;42885;49.754;18.636;2022-08-19T02:43:25;97610.09;;;26.92;69.48
56992;BME280;42885;49.754;18.636;2022-08-19T02:45:56;97601.52;;;26.70;70.62
56992;BME280;42885;49.754;18.636;2022-08-19T02:48:26;97602.09;;;27.01;71.83
56992;BME280;42885;49.754;18.636;2022-08-19T02:50:57;97600.19;;;26.86;69.80
56992;BME280;42885;49.754;18.636;2022-08-19T02:53:29;97594.56;;;26.78;70.04
56992;BME280;42885;49.754;18.636;2022-08-19T02:55:59;97590.92;;;26.82;69.07
56992;BME280;42885;49.754;18.636;2022-08-19T02:58:30;97588.26;;;26.75;69.51
56992;BME280;42885;49.754;18.636;2022-08-19T03:01:01;97583.17;;;26.60;72.69
56992;BME280;42885;49.754;18.636;2022-08-19T03:03:32;97583.46;;;26.90;67.32
56992;BME280;42885;49.754;18.636;2022-08-19T03:06:05;97586.79;;;27.02;66.80
56992;BME280;42885;49.754;18.636;2022-08-19T03:08:37;97588.94;;;26.86;68.33
56992;BME280;42885;49.754;18.636;2022-08-19T03:11:17;97596.84;;;26.74;70.54
56992;BME280;42885;49.754;18.636;2022-08-19T03:13:48;97600.41;;;26.91;67.10
56992;BME280;42885;49.754;18.636;2022-08-19T03:16:23;97606.09;;;26.56;72.20
56992;BME280;42885;49.754;18.636;2022-08-19T03:18:55;97607.92;;;26.62;70.71
56992;BME280;42885;49.754;18.636;2022-08-19T03:21:31;97606.63;;;27.01;66.17
56992;BME280;42885;49.754;18.636;2022-08-19T03:24:05;97603.18;;;27.10;64.39
56992;BME280;42885;49.754;18.636;2022-08-19T03:26:42;97606.07;;;27.08;64.39
56992;BME280;42885;49.754;18.636;2022-08-19T03:29:14;97603.98;;;27.10;63.47
56992;BME280;42885;49.754;18.636;2022-08-19T03:31:45;97608.55;;;27.10;63.71
56992;BME280;42885;49.754;18.636;2022-08-19T03:34:19;97613.79;;;27.30;62.01
56992;BME280;42885;49.754;18.636;2022-08-19T03:36:50;97611.52;;;27.27;62.76
56992;BME280;42885;49.754;18.636;2022-08-19T03:39:22;97617.50;;;27.13;63.18
56992;BME280;42885;49.754;18.636;2022-08-19T03:41:54;97619.54;;;27.17;62.69
56992;BME280;42885;49.754;18.636;2022-08-19T03:44:30;97622.13;;;26.99;63.26
56992;BME280;42885;49.754;18.636;2022-08-19T03:47:02;97630.58;;;27.02;63.04
56992;BME280;42885;49.754;18.636;2022-08-19T03:49:33;97636.30;;;26.97;63.57
56992;BME280;42885;49.754;18.636;2022-08-19T03:52:05;97622.63;;;27.05;62.83
56992;BME280;42885;49.754;18.636;2022-08-19T03:54:37;97627.34;;;27.10;62.40
56992;BME280;42885;49.754;18.636;2022-08-19T03:57:08;97629.38;;;27.14;61.89
56992;BME280;42885;49.754;18.636;2022-08-19T03:59:39;97630.47;;;27.06;62.57
56992;BME280;42885;49.754;18.636;2022-08-19T04:02:12;97636.34;;;27.06;62.22
56992;BME280;42885;49.754;18.636;2022-08-19T04:04:43;97654.55;;;26.97;63.94
56992;BME280;42885;49.754;18.636;2022-08-19T04:07:15;97658.84;;;26.82;65.43
56992;BME280;42885;49.754;18.636;2022-08-19T04:09:48;97657.94;;;27.02;63.09
56992;BME280;42885;49.754;18.636;2022-08-19T04:12:20;97662.50;;;27.01;64.28
56992;BME280;42885;49.754;18.636;2022-08-19T04:14:50;97662.70;;;27.00;65.05
56992;BME280;42885;49.754;18.636;2022-08-19T04:17:21;97666.28;;;26.80;66.49
56992;BME280;42885;49.754;18.636;2022-08-19T04:19:52;97665.84;;;26.83;66.86
56992;BME280;42885;49.754;18.636;2022-08-19T04:22:23;97671.19;;;26.60;70.47
56992;BME280;42885;49.754;18.636;2022-08-19T04:24:53;97673.27;;;26.58;69.38
56992;BME280;42885;49.754;18.636;2022-08-19T04:27:24;97668.83;;;26.84;67.00
56992;BME280;42885;49.754;18.636;2022-08-19T04:29:55;97672.66;;;26.86;66.40
56992;BME280;42885;49.754;18.636;2022-08-19T04:32:26;97674.68;;;27.04;65.44
56992;BME280;42885;49.754;18.636;2022-08-19T04:34:57;97670.95;;;27.05;64.54
56992;BME280;42885;49.754;18.636;2022-08-19T04:37:28;97670.50;;;27.15;64.22
56992;BME280;42885;49.754;18.636;2022-08-19T04:40:03;97681.65;;;26.82;68.03
56992;BME280;42885;49.754;18.636;2022-08-19T04:42:51;97687.85;;;26.89;67.76
56992;BME280;42885;49.754;18.636;2022-08-19T04:45:22;97675.13;;;26.94;68.09
56992;BME280;42885;49.754;18.636;2022-08-19T04:47:55;97676.47;;;26.94;67.15
56992;BME280;42885;49.754;18.636;2022-08-19T04:50:27;97678.95;;;26.96;66.65
56992;BME280;42885;49.754;18.636;2022-08-19T04:52:58;97687.42;;;26.86;68.57
56992;BME280;42885;49.754;18.636;2022-08-19T04:55:29;97688.91;;;27.04;67.70
56992;BME280;42885;49.754;18.636;2022-08-19T04:58:00;97688.91;;;27.04;67.70
56992;BME280;42885;49.754;18.636;2022-08-19T05:00:31;97685.58;;;27.09;66.58
56992;BME280;42885;49.754;18.636;2022-08-19T05:03:02;97686.36;;;27.23;65.41
56992;BME280;42885;49.754;18.636;2022-08-19T05:05:33;97686.17;;;26.88;70.73
56992;BME280;42885;49.754;18.636;2022-08-19T05:08:04;97687.16;;;26.78;72.99
56992;BME280;42885;49.754;18.636;2022-08-19T05:13:27;97683.97;;;26.72;75.04
56992;BME280;42885;49.754;18.636;2022-08-19T05:15:58;97675.14;;;26.80;72.04
56992;BME280;42885;49.754;18.636;2022-08-19T05:18:29;97679.76;;;26.96;72.17
56992;BME280;42885;49.754;18.636;2022-08-19T05:21:19;97687.21;;;26.94;72.33
56992;BME280;42885;49.754;18.636;2022-08-19T05:24:09;97686.88;;;27.00;71.59
56992;BME280;42885;49.754;18.636;2022-08-19T05:26:43;97686.86;;;27.06;71.38
56992;BME280;42885;49.754;18.636;2022-08-19T05:29:18;97686.52;;;27.12;72.08
56992;BME280;42885;49.754;18.636;2022-08-19T05:31:50;97694.42;;;27.23;70.33
56992;BME280;42885;49.754;18.636;2022-08-19T05:34:22;97694.92;;;27.23;69.40
56992;BME280;42885;49.754;18.636;2022-08-19T05:36:56;97690.98;;;27.64;68.66
56992;BME280;42885;49.754;18.636;2022-08-19T05:39:32;97688.26;;;27.32;67.63
56992;BME280;42885;49.754;18.636;2022-08-19T05:42:06;97684.92;;;27.37;67.94
56992;BME280;42885;49.754;18.636;2022-08-19T05:44:39;97686.91;;;27.32;67.93
56992;BME280;42885;49.754;18.636;2022-08-19T05:47:13;97689.23;;;27.44;66.68
56992;BME280;42885;49.754;18.636;2022-08-19T05:49:44;97685.80;;;27.46;66.96
56992;BME280;42885;49.754;18.636;2022-08-19T05:52:16;97694.55;;;27.51;66.08
56992;BME280;42885;49.754;18.636;2022-08-19T05:54:47;97696.11;;;27.56;65.60
56992;BME280;42885;49.754;18.636;2022-08-19T05:57:18;97697.10;;;27.62;66.23
56992;BME280;42885;49.754;18.636;2022-08-19T05:59:49;97702.17;;;27.61;66.58
56992;BME280;42885;49.754;18.636;2022-08-19T06:02:20;97698.14;;;28.02;65.79
56992;BME280;42885;49.754;18.636;2022-08-19T06:04:51;97701.80;;;27.83;65.42
56992;BME280;42885;49.754;18.636;2022-08-19T06:07:22;97697.91;;;27.79;64.33
56992;BME280;42885;49.754;18.636;2022-08-19T06:09:52;97710.01;;;27.79;65.10
56992;BME280;42885;49.754;18.636;2022-08-19T06:12:23;97705.23;;;27.81;63.67
56992;BME280;42885;49.754;18.636;2022-08-19T06:14:55;97702.06;;;27.91;62.33
56992;BME280;42885;49.754;18.636;2022-08-19T06:17:26;97700.39;;;28.31;62.12
56992;BME280;42885;49.754;18.636;2022-08-19T06:19:57;97715.40;;;28.13;61.75
56992;BME280;42885;49.754;18.636;2022-08-19T06:22:28;97723.80;;;28.14;62.09
56992;BME280;42885;49.754;18.636;2022-08-19T06:24:59;97709.73;;;28.28;60.90
56992;BME280;42885;49.754;18.636;2022-08-19T06:27:29;97724.67;;;28.43;59.04
56992;BME280;42885;49.754;18.636;2022-08-19T06:30:03;97725.39;;;28.57;59.86
56992;BME280;42885;49.754;18.636;2022-08-19T06:32:34;97723.34;;;29.18;59.87
56992;BME280;42885;49.754;18.636;2022-08-19T06:35:06;97729.31;;;28.89;58.29
56992;BME280;42885;49.754;18.636;2022-08-19T06:37:38;97731.02;;;29.02;57.15
56992;BME280;42885;49.754;18.636;2022-08-19T06:40:11;97731.45;;;29.08;57.11
56992;BME280;42885;49.754;18.636;2022-08-19T06:42:41;97735.25;;;29.69;57.39
56992;BME280;42885;49.754;18.636;2022-08-19T06:45:12;97733.73;;;29.33;58.03
56992;BME280;42885;49.754;18.636;2022-08-19T06:47:47;97738.00;;;29.31;57.61
56992;BME280;42885;49.754;18.636;2022-08-19T06:50:18;97740.45;;;29.42;57.27
56992;BME280;42885;49.754;18.636;2022-08-19T06:52:49;97748.83;;;29.52;56.45
56992;BME280;42885;49.754;18.636;2022-08-19T06:55:20;97752.87;;;29.52;55.91
56992;BME280;42885;49.754;18.636;2022-08-19T06:57:52;97764.98;;;29.62;55.26
56992;BME280;42885;49.754;18.636;2022-08-19T07:00:23;97772.08;;;29.65;54.42
56992;BME280;42885;49.754;18.636;2022-08-19T07:02:55;97769.61;;;29.73;54.05
56992;BME280;42885;49.754;18.636;2022-08-19T07:05:26;97766.00;;;29.91;54.84
56992;BME280;42885;49.754;18.636;2022-08-19T07:07:57;97761.41;;;29.80;53.41
56992;BME280;42885;49.754;18.636;2022-08-19T07:10:28;97765.15;;;30.00;54.82
56992;BME280;42885;49.754;18.636;2022-08-19T07:13:01;97776.42;;;30.18;54.25
56992;BME280;42885;49.754;18.636;2022-08-19T07:15:31;97776.41;;;30.06;53.15
56992;BME280;42885;49.754;18.636;2022-08-19T07:18:03;97777.50;;;30.08;52.58
56992;BME280;42885;49.754;18.636;2022-08-19T07:20:34;97785.58;;;30.65;52.81
56992;BME280;42885;49.754;18.636;2022-08-19T07:23:06;97784.83;;;30.31;51.36
56992;BME280;42885;49.754;18.636;2022-08-19T07:25:38;97789.05;;;30.63;51.07
56992;BME280;42885;49.754;18.636;2022-08-19T07:28:09;97789.72;;;30.68;52.81
56992;BME280;42885;49.754;18.636;2022-08-19T07:30:40;97793.83;;;30.82;50.55
56992;BME280;42885;49.754;18.636;2022-08-19T07:33:11;97789.31;;;31.12;50.97
56992;BME280;42885;49.754;18.636;2022-08-19T07:36:06;97788.30;;;31.27;50.81
56992;BME280;42885;49.754;18.636;2022-08-19T07:38:37;97788.39;;;31.21;50.28
56992;BME280;42885;49.754;18.636;2022-08-19T07:41:21;97792.59;;;31.14;50.07
56992;BME280;42885;49.754;18.636;2022-08-19T07:44:22;97792.27;;;30.98;50.23
56992;BME280;42885;49.754;18.636;2022-08-19T07:47:09;97803.12;;;30.65;51.36
56992;BME280;42885;49.754;18.636;2022-08-19T07:49:43;97806.49;;;30.82;50.13
56992;BME280;42885;49.754;18.636;2022-08-19T07:52:22;97801.61;;;30.57;51.83
56992;BME280;42885;49.754;18.636;2022-08-19T07:54:56;97800.88;;;30.26;53.01
56992;BME280;42885;49.754;18.636;2022-08-19T07:57:46;97808.08;;;30.11;52.43
56992;BME280;42885;49.754;18.636;2022-08-19T08:00:36;97807.09;;;30.15;53.66
56992;BME280;42885;49.754;18.636;2022-08-19T08:03:17;97808.03;;;30.20;53.68
56992;BME280;42885;49.754;18.636;2022-08-19T08:12:00;97798.84;;;30.43;51.75
56992;BME280;42885;49.754;18.636;2022-08-19T08:14:51;97799.72;;;30.58;51.46
56992;BME280;42885;49.754;18.636;2022-08-19T08:17:25;97795.83;;;30.75;51.83
56992;BME280;42885;49.754;18.636;2022-08-19T08:19:58;97796.70;;;30.66;50.78
56992;BME280;42885;49.754;18.636;2022-08-19T08:22:29;97798.05;;;30.66;51.14
56992;BME280;42885;49.754;18.636;2022-08-19T08:25:21;97792.45;;;30.58;51.73
56992;BME280;42885;49.754;18.636;2022-08-19T08:27:52;97800.84;;;30.47;52.19
56992;BME280;42885;49.754;18.636;2022-08-19T08:30:24;97794.30;;;30.34;52.63
56992;BME280;42885;49.754;18.636;2022-08-19T08:32:56;97799.30;;;30.28;52.05
56992;BME280;42885;49.754;18.636;2022-08-19T08:35:28;97792.72;;;30.24;53.70
56992;BME280;42885;49.754;18.636;2022-08-19T08:37:59;97792.49;;;30.25;52.46
56992;BME280;42885;49.754;18.636;2022-08-19T08:40:45;97792.29;;;30.17;52.86
56992;BME280;42885;49.754;18.636;2022-08-19T08:43:27;97798.45;;;30.15;53.12
56992;BME280;42885;49.754;18.636;2022-08-19T08:46:07;97795.89;;;30.20;52.95
56992;BME280;42885;49.754;18.636;2022-08-19T08:51:59;97792.13;;;30.21;53.63
56992;BME280;42885;49.754;18.636;2022-08-19T08:54:36;97796.05;;;30.16;52.77
56992;BME280;42885;49.754;18.636;2022-08-19T08:57:23;97788.38;;;30.22;53.47
56992;BME280;42885;49.754;18.636;2022-08-19T08:59:49;97789.73;;;30.22;52.87
56992;BME280;42885;49.754;18.636;2022-08-19T09:02:21;97788.03;;;30.31;52.81
56992;BME280;42885;49.754;18.636;2022-08-19T09:04:54;97786.92;;;30.41;52.20
56992;BME280;42885;49.754;18.636;2022-08-19T09:07:49;97791.23;;;30.52;52.25
56992;BME280;42885;49.754;18.636;2022-08-19T09:13:32;97788.65;;;30.81;51.63
56992;BME280;42885;49.754;18.636;2022-08-19T09:16:07;97790.48;;;30.78;50.58
56992;BME280;42885;49.754;18.636;2022-08-19T09:18:47;97791.82;;;30.89;50.62
56992;BME280;42885;49.754;18.636;2022-08-19T09:21:19;97795.43;;;31.07;50.62
56992;BME280;42885;49.754;18.636;2022-08-19T09:23:52;97790.95;;;31.25;49.71
56992;BME280;42885;49.754;18.636;2022-08-19T09:26:23;97792.95;;;31.44;49.88
56992;BME280;42885;49.754;18.636;2022-08-19T09:28:56;97798.44;;;32.24;50.13
56992;BME280;42885;49.754;18.636;2022-08-19T09:31:29;97794.16;;;32.28;47.57
56992;BME280;42885;49.754;18.636;2022-08-19T09:34:00;97796.53;;;32.39;46.56
56992;BME280;42885;49.754;18.636;2022-08-19T09:36:32;97794.61;;;32.74;46.66
56992;BME280;42885;49.754;18.636;2022-08-19T09:39:08;97792.34;;;33.50;46.45
56992;BME280;42885;49.754;18.636;2022-08-19T09:41:39;97794.42;;;32.81;45.50
56992;BME280;42885;49.754;18.636;2022-08-19T09:44:09;97785.28;;;33.27;46.50
56992;BME280;42885;49.754;18.636;2022-08-19T09:46:45;97794.19;;;33.47;45.76
56992;BME280;42885;49.754;18.636;2022-08-19T09:49:20;97778.80;;;33.08;44.41
56992;BME280;42885;49.754;18.636;2022-08-19T09:51:52;97781.97;;;33.69;44.24
56992;BME280;42885;49.754;18.636;2022-08-19T09:54:25;97785.45;;;33.64;44.19
56992;BME280;42885;49.754;18.636;2022-08-19T09:56:58;97782.75;;;33.42;44.12
56992;BME280;42885;49.754;18.636;2022-08-19T09:59:32;97780.92;;;33.73;44.77
56992;BME280;42885;49.754;18.636;2022-08-19T10:02:03;97782.23;;;33.45;44.98
56992;BME280;42885;49.754;18.636;2022-08-19T10:04:34;97785.02;;;32.86;44.72
56992;BME280;42885;49.754;18.636;2022-08-19T10:07:23;97779.75;;;32.97;45.31
56992;BME280;42885;49.754;18.636;2022-08-19T10:09:58;97775.24;;;33.77;43.66
56992;BME280;42885;49.754;18.636;2022-08-19T10:12:29;97773.21;;;34.22;43.78
56992;BME280;42885;49.754;18.636;2022-08-19T10:15:00;97774.56;;;34.57;43.16
56992;BME280;42885;49.754;18.636;2022-08-19T10:17:31;97771.44;;;34.38;42.44
56992;BME280;42885;49.754;18.636;2022-08-19T10:20:05;97769.30;;;34.08;43.13
56992;BME280;42885;49.754;18.636;2022-08-19T10:22:36;97766.50;;;34.30;42.26
56992;BME280;42885;49.754;18.636;2022-08-19T10:25:07;97758.89;;;34.70;41.77
56992;BME280;42885;49.754;18.636;2022-08-19T10:27:38;97753.28;;;34.87;40.38
56992;BME280;42885;49.754;18.636;2022-08-19T10:30:10;97748.27;;;34.63;39.72
56992;BME280;42885;49.754;18.636;2022-08-19T10:32:41;97756.56;;;34.97;40.05
56992;BME280;42885;49.754;18.636;2022-08-19T10:35:13;97757.86;;;34.79;39.33
56992;BME280;42885;49.754;18.636;2022-08-19T10:37:44;97758.55;;;34.61;38.68
56992;BME280;42885;49.754;18.636;2022-08-19T10:40:15;97761.89;;;34.73;39.28
56992;BME280;42885;49.754;18.636;2022-08-19T10:42:46;97759.62;;;34.57;39.06
56992;BME280;42885;49.754;18.636;2022-08-19T10:45:17;97755.38;;;34.75;38.59
56992;BME280;42885;49.754;18.636;2022-08-19T10:47:48;97756.25;;;34.85;39.32
56992;BME280;42885;49.754;18.636;2022-08-19T10:50:19;97761.33;;;34.69;40.67
56992;BME280;42885;49.754;18.636;2022-08-19T10:53:08;97760.91;;;34.50;40.36
56992;BME280;42885;49.754;18.636;2022-08-19T10:55:39;97765.07;;;34.60;39.78
56992;BME280;42885;49.754;18.636;2022-08-19T10:58:27;97768.13;;;34.69;39.85
56992;BME280;42885;49.754;18.636;2022-08-19T11:00:59;97755.67;;;34.38;40.33
56992;BME280;42885;49.754;18.636;2022-08-19T11:03:32;97761.35;;;34.71;39.54
56992;BME280;42885;49.754;18.636;2022-08-19T11:06:08;97759.31;;;35.02;40.08
56992;BME280;42885;49.754;18.636;2022-08-19T11:08:38;97757.00;;;35.34;38.03
56992;BME280;42885;49.754;18.636;2022-08-19T11:11:12;97748.94;;;35.73;37.48
56992;BME280;42885;49.754;18.636;2022-08-19T11:13:46;97751.11;;;36.05;37.85
56992;BME280;42885;49.754;18.636;2022-08-19T11:16:19;97754.94;;;36.06;36.63
56992;BME280;42885;49.754;18.636;2022-08-19T11:18:54;97745.39;;;35.75;36.69
56992;BME280;42885;49.754;18.636;2022-08-19T11:21:29;97745.51;;;35.11;37.78
56992;BME280;42885;49.754;18.636;2022-08-19T11:24:04;97758.66;;;35.46;36.64
56992;BME280;42885;49.754;18.636;2022-08-19T11:26:36;97755.16;;;34.86;37.95
56992;BME280;42885;49.754;18.636;2022-08-19T11:29:07;97758.98;;;34.93;37.60
56992;BME280;42885;49.754;18.636;2022-08-19T11:31:40;97745.81;;;35.18;38.15
56992;BME280;42885;49.754;18.636;2022-08-19T11:34:15;97748.33;;;35.53;37.62
56992;BME280;42885;49.754;18.636;2022-08-19T11:36:46;97735.60;;;36.03;36.40
56992;BME280;42885;49.754;18.636;2022-08-19T11:39:20;97739.95;;;36.37;35.15
56992;BME280;42885;49.754;18.636;2022-08-19T11:41:51;97732.84;;;36.60;34.73
56992;BME280;42885;49.754;18.636;2022-08-19T11:44:22;97731.70;;;36.71;33.93
56992;BME280;42885;49.754;18.636;2022-08-19T11:46:53;97740.78;;;36.22;35.23
56992;BME280;42885;49.754;18.636;2022-08-19T11:49:24;97743.77;;;36.29;35.81
56992;BME280;42885;49.754;18.636;2022-08-19T11:52:00;97735.30;;;36.59;35.09
56992;BME280;42885;49.754;18.636;2022-08-19T11:54:29;97734.42;;;36.74;34.44
56992;BME280;42885;49.754;18.636;2022-08-19T11:57:03;97729.18;;;36.93;34.31
56992;BME280;42885;49.754;18.636;2022-08-19T11:59:37;97738.33;;;36.34;34.33
56992;BME280;42885;49.754;18.636;2022-08-19T12:02:07;97731.23;;;35.81;34.95
56992;BME280;42885;49.754;18.636;2022-08-19T12:04:39;97739.13;;;36.06;34.61
56992;BME280;42885;49.754;18.636;2022-08-19T12:07:10;97735.61;;;35.77;35.08
56992;BME280;42885;49.754;18.636;2022-08-19T12:09:42;97724.94;;;36.63;33.85
56992;BME280;42885;49.754;18.636;2022-08-19T12:12:13;97719.33;;;37.00;33.09
56992;BME280;42885;49.754;18.636;2022-08-19T12:14:43;97724.63;;;36.70;32.56
56992;BME280;42885;49.754;18.636;2022-08-19T12:17:15;97729.36;;;36.07;33.61
56992;BME280;42885;49.754;18.636;2022-08-19T12:19:45;97721.37;;;36.71;33.94
56992;BME280;42885;49.754;18.636;2022-08-19T12:22:16;97732.63;;;36.20;34.20
56992;BME280;42885;49.754;18.636;2022-08-19T12:24:48;97713.24;;;37.21;33.70
56992;BME280;42885;49.754;18.636;2022-08-19T12:27:20;97722.59;;;37.07;31.38
56992;BME280;42885;49.754;18.636;2022-08-19T12:29:51;97714.96;;;37.01;32.44
56992;BME280;42885;49.754;18.636;2022-08-19T12:32:22;97714.85;;;37.27;32.58
56992;BME280;42885;49.754;18.636;2022-08-19T12:34:54;97715.30;;;36.82;32.67
56992;BME280;42885;49.754;18.636;2022-08-19T12:37:25;97714.91;;;36.02;33.80
56992;BME280;42885;49.754;18.636;2022-08-19T12:39:56;97714.66;;;35.88;34.45
56992;BME280;42885;49.754;18.636;2022-08-19T12:42:27;97717.56;;;36.56;33.53
56992;BME280;42885;49.754;18.636;2022-08-19T12:44:59;97701.79;;;36.45;33.29
56992;BME280;42885;49.754;18.636;2022-08-19T12:47:29;97708.68;;;36.12;33.55
56992;BME280;42885;49.754;18.636;2022-08-19T12:50:01;97705.39;;;35.63;34.36
56992;BME280;42885;49.754;18.636;2022-08-19T12:52:32;97708.34;;;35.51;34.62
56992;BME280;42885;49.754;18.636;2022-08-19T12:55:05;97715.64;;;35.27;34.77
56992;BME280;42885;49.754;18.636;2022-08-19T12:57:36;97712.92;;;35.35;34.87
56992;BME280;42885;49.754;18.636;2022-08-19T13:00:10;97706.14;;;35.37;34.65
56992;BME280;42885;49.754;18.636;2022-08-19T13:02:43;97707.84;;;35.59;34.38
56992;BME280;42885;49.754;18.636;2022-08-19T13:05:17;97705.12;;;35.69;33.87
56992;BME280;42885;49.754;18.636;2022-08-19T13:07:51;97704.50;;;36.53;33.78
56992;BME280;42885;49.754;18.636;2022-08-19T13:10:31;97692.41;;;37.41;32.52
56992;BME280;42885;49.754;18.636;2022-08-19T13:13:08;97693.30;;;38.03;32.21
56992;BME280;42885;49.754;18.636;2022-08-19T13:15:38;97693.95;;;37.57;31.31
56992;BME280;42885;49.754;18.636;2022-08-19T13:18:10;97691.23;;;38.71;30.80
56992;BME280;42885;49.754;18.636;2022-08-19T13:20:42;97687.37;;;38.96;30.37
56992;BME280;42885;49.754;18.636;2022-08-19T13:23:12;97681.44;;;39.30;29.64
56992;BME280;42885;49.754;18.636;2022-08-19T13:25:43;97686.28;;;38.73;29.47
56992;BME280;42885;49.754;18.636;2022-08-19T13:28:14;97695.73;;;38.34;29.79
56992;BME280;42885;49.754;18.636;2022-08-19T13:30:47;97690.91;;;38.99;29.68
56992;BME280;42885;49.754;18.636;2022-08-19T13:33:35;97689.52;;;38.55;30.17